Time;durP1;ratioP1;P1;durP2;ratioP2;P2;SDS_P1;SDS_P2;PMS_P1;PMS_P2;Temp;Humidity;BMP_temperature;BMP_pressure;BME280_temperature;BME280_humidity;BME280_pressure;Samples;Min_cycle;Max_cycle;Signal;HPM_P1;HPM_P2
2023/09/23 00:00:15;;;;;;;;;;;;;;;22.47;47.92;100705.88;4981618;28;19918;-89
2023/09/23 00:02:44;;;;;;;;;;;;;;;22.48;47.71;100698.50;4977338;28;19936;-89
2023/09/23 00:05:16;;;;;;;;;;;;;;;22.51;47.92;100712.28;4979065;28;19918;-89
2023/09/23 00:07:43;;;;;;;;;;;;;;;22.49;47.89;100713.72;4981759;28;19965;-90
2023/09/23 00:10:12;;;;;;;;;;;;;;;22.46;48.01;100715.19;4977706;28;19926;-89
2023/09/23 00:12:43;;;;;;;;;;;;;;;22.44;48.06;100709.28;4981876;28;19918;-90
2023/09/23 00:15:15;;;;;;;;;;;;;;;22.44;48.02;100714.72;4980258;28;19918;-89
2023/09/23 00:17:46;;;;;;;;;;;;;;;22.43;48.16;100712.31;4982067;28;19925;-89
2023/09/23 00:20:15;;;;;;;;;;;;;;;22.41;48.03;100714.56;4979916;28;19918;-90
2023/09/23 00:22:47;;;;;;;;;;;;;;;22.41;48.24;100714.56;4996351;28;19961;-90
2023/09/23 00:25:18;;;;;;;;;;;;;;;22.45;48.00;100713.59;4977540;28;20115;-89
2023/09/23 00:27:45;;;;;;;;;;;;;;;22.44;47.95;100712.00;4978784;28;19917;-89
2023/09/23 00:30:12;;;;;;;;;;;;;;;22.41;48.15;100709.91;5001032;28;20251;-89
2023/09/23 00:32:41;;;;;;;;;;;;;;;22.43;47.99;100713.09;4979964;28;20103;-89
2023/09/23 00:35:12;;;;;;;;;;;;;;;22.41;48.04;100717.28;4980413;28;20339;-90
2023/09/23 00:37:43;;;;;;;;;;;;;;;22.38;48.14;100723.41;4982149;28;20028;-90
2023/09/23 00:40:29;;;;;;;;;;;;;;;22.33;48.33;100724.41;4981614;28;19921;-90
2023/09/23 00:43:07;;;;;;;;;;;;;;;22.28;48.53;100725.38;4986927;28;20294;-90
2023/09/23 00:45:34;;;;;;;;;;;;;;;22.26;48.38;100716.72;4985262;28;19929;-90
2023/09/23 00:48:02;;;;;;;;;;;;;;;22.29;48.33;100704.34;4998374;28;19926;-89
2023/09/23 00:50:29;;;;;;;;;;;;;;;22.31;48.51;100708.34;5001572;28;19934;-90
2023/09/23 00:52:56;;;;;;;;;;;;;;;22.32;48.43;100703.69;4987172;28;20042;-89
2023/09/23 00:55:26;;;;;;;;;;;;;;;22.33;48.45;100708.03;4983151;28;20979;-90
2023/09/23 00:58:00;;;;;;;;;;;;;;;22.35;48.43;100713.94;4984515;28;19918;-90
2023/09/23 01:00:31;;;;;;;;;;;;;;;;;;4982263;28;20394;-90
2023/09/23 01:03:07;;;;;;;;;;;;;;;22.30;48.30;100714.94;4983863;28;19922;-89
2023/09/23 01:05:34;;;;;;;;;;;;;;;22.28;48.46;100713.66;4984549;28;19956;-90
2023/09/23 01:08:11;;;;;;;;;;;;;;;22.27;48.49;100723.00;4985137;28;19930;-89
2023/09/23 01:10:39;;;;;;;;;;;;;;;22.24;48.66;100721.69;4984191;28;19922;-89
2023/09/23 01:13:13;;;;;;;;;;;;;;;22.23;48.62;100711.91;4984303;28;19967;-90
2023/09/23 01:15:40;;;;;;;;;;;;;;;22.21;48.73;100710.63;5001071;28;19921;-89
2023/09/23 01:18:08;;;;;;;;;;;;;;;22.18;48.49;100731.19;4983216;28;19937;-90
2023/09/23 01:20:37;;;;;;;;;;;;;;;22.15;48.64;100725.59;4982455;28;19930;-90
2023/09/23 01:23:05;;;;;;;;;;;;;;;22.15;48.71;100725.59;4983892;28;19944;-90
2023/09/23 01:25:36;;;;;;;;;;;;;;;22.15;48.76;100709.22;4985289;28;20004;-89
2023/09/23 01:28:11;;;;;;;;;;;;;;;22.15;48.41;100704.56;4985781;28;19921;-90
2023/09/23 01:30:38;;;;;;;;;;;;;;;22.14;48.55;100692.03;4984371;28;19994;-90
2023/09/23 01:33:07;;;;;;;;;;;;;;;22.14;48.83;100699.44;4983866;28;20091;-90
2023/09/23 01:35:33;;;;;;;;;;;;;;;22.15;48.50;100701.03;4981707;28;20398;-89
2023/09/23 01:38:03;;;;;;;;;;;;;;;22.15;48.57;100695.56;4986218;28;19929;-89
2023/09/23 01:40:33;;;;;;;;;;;;;;;22.11;48.65;100703.63;4983988;28;19933;-90
2023/09/23 01:42:59;;;;;;;;;;;;;;;22.08;48.67;100708.91;4989090;28;19926;-90
2023/09/23 01:45:26;;;;;;;;;;;;;;;22.06;48.62;100711.16;5002069;28;19917;-90
2023/09/23 01:47:56;;;;;;;;;;;;;;;22.05;48.91;100717.75;4987603;28;20008;-89
2023/09/23 01:50:22;;;;;;;;;;;;;;;22.02;48.80;100721.91;4991519;28;20523;-90
2023/09/23 01:52:49;;;;;;;;;;;;;;;22.00;48.94;100719.50;4992794;28;19929;-90
2023/09/23 01:55:24;;;;;;;;;;;;;;;21.96;48.75;100731.41;4986865;28;19918;-90
2023/09/23 01:57:51;;;;;;;;;;;;;;;21.93;48.95;100727.38;4985717;28;20406;-90
2023/09/23 02:00:28;;;;;;;;;;;;;;;21.91;48.91;100747.94;5000767;28;20512;-90
2023/09/23 02:02:55;;;;;;;;;;;;;;;21.91;48.97;100745.22;4985579;28;19953;-88
2023/09/23 02:05:28;;;;;;;;;;;;;;;21.92;48.81;100747.63;4986465;28;20021;-90
2023/09/23 02:07:55;;;;;;;;;;;;;;;21.91;48.86;100747.94;4982262;28;19972;-90
2023/09/23 02:10:26;;;;;;;;;;;;;;;21.89;48.81;100737.31;4995682;28;19995;-90
2023/09/23 02:12:53;;;;;;;;;;;;;;;21.88;48.88;100735.72;4983411;28;19968;-89
2023/09/23 02:15:20;;;;;;;;;;;;;;;21.90;48.78;100740.84;4982748;28;19933;-90
2023/09/23 02:17:47;;;;;;;;;;;;;;;21.90;48.93;100747.13;4981021;28;20923;-90
2023/09/23 02:20:21;;;;;;;;;;;;;;;21.93;48.62;100753.88;4998209;28;19969;-90
2023/09/23 02:22:49;;;;;;;;;;;;;;;21.91;48.94;100750.66;5001366;28;20071;-90
2023/09/23 02:25:16;;;;;;;;;;;;;;;21.91;48.72;100750.66;4979174;28;19930;-90
2023/09/23 02:27:46;;;;;;;;;;;;;;;21.88;48.92;100759.47;4980110;28;19922;-89
2023/09/23 02:30:14;;;;;;;;;;;;;;;21.85;48.80;100750.00;4983365;28;19941;-90
2023/09/23 02:32:44;;;;;;;;;;;;;;;21.85;48.92;100749.22;4998257;28;19926;-90
2023/09/23 02:35:15;;;;;;;;;;;;;;;21.85;48.70;100738.31;4979436;28;19918;-90
2023/09/23 02:37:46;;;;;;;;;;;;;;;21.85;48.89;100739.09;4981334;28;19989;-90
2023/09/23 02:40:14;;;;;;;;;;;;;;;21.86;48.68;100742.63;4981566;28;20040;-90
2023/09/23 02:42:42;;;;;;;;;;;;;;;21.86;48.63;100729.00;4980612;28;20450;-89
2023/09/23 02:45:09;;;;;;;;;;;;;;;21.87;48.68;100738.78;4983784;28;19918;-90
2023/09/23 02:47:37;;;;;;;;;;;;;;;21.87;48.67;100736.84;4981562;28;19918;-89
2023/09/23 02:50:09;;;;;;;;;;;;;;;21.87;48.66;100750.50;4996909;28;19922;-89
2023/09/23 02:52:41;;;;;;;;;;;;;;;21.84;48.67;100742.97;4981163;28;19918;-90
2023/09/23 02:55:15;;;;;;;;;;;;;;;21.81;48.62;100743.59;4994496;28;19929;-89
2023/09/23 02:57:45;;;;;;;;;;;;;;;21.81;48.77;100749.06;4979995;28;19925;-89
2023/09/23 03:00:22;;;;;;;;;;;;;;;21.81;48.80;100749.06;4982035;28;19925;-90
2023/09/23 03:02:53;;;;;;;;;;;;;;;21.80;48.74;100760.31;4981909;28;20416;-90
2023/09/23 03:05:26;;;;;;;;;;;;;;;21.78;48.77;100765.28;4996666;28;19929;-89
2023/09/23 03:07:52;;;;;;;;;;;;;;;21.74;48.58;100773.31;4980085;28;20397;-89
2023/09/23 03:10:31;;;;;;;;;;;;;;;21.68;48.65;100769.13;4980981;28;19979;-89
2023/09/23 03:13:07;;;;;;;;;;;;;;;21.66;48.68;100765.91;4981386;28;19931;-90
2023/09/23 03:16:07;;;;;;;;;;;;;;;21.65;48.66;100767.03;4978882;28;20278;-90
2023/09/23 03:18:34;;;;;;;;;;;;;;;21.58;48.75;100764.81;4981349;28;19964;-89
2023/09/23 03:21:07;;;;;;;;;;;;;;;21.57;48.76;100773.31;4980711;28;19972;-90
2023/09/23 03:23:35;;;;;;;;;;;;;;;21.56;48.84;100767.06;4983200;28;20276;-90
2023/09/23 03:26:02;;;;;;;;;;;;;;;21.56;49.05;100780.69;4976334;28;19929;-90
2023/09/23 03:28:27;;;;;;;;;;;;;;;21.54;48.66;100788.38;4977929;28;20008;-90
2023/09/23 03:31:00;;;;;;;;;;;;;;;21.53;48.83;100786.75;4978546;28;20399;-90
2023/09/23 03:33:29;;;;;;;;;;;;;;;21.50;48.72;100786.59;4981339;28;19926;-90
2023/09/23 03:35:56;;;;;;;;;;;;;;;21.47;48.96;100795.44;4979453;28;19988;-90
2023/09/23 03:38:25;;;;;;;;;;;;;;;21.44;48.81;100793.34;4984508;28;19926;-90
2023/09/23 03:40:54;;;;;;;;;;;;;;;21.39;48.83;100792.38;4983313;28;20091;-90
2023/09/23 03:43:20;;;;;;;;;;;;;;;21.38;49.04;100790.78;4981409;28;20437;-89
2023/09/23 03:45:48;;;;;;;;;;;;;;;21.37;48.95;100789.19;4981519;28;20020;-90
2023/09/23 03:48:14;;;;;;;;;;;;;;;21.37;49.06;100791.91;4978400;28;19944;-89
2023/09/23 03:50:40;;;;;;;;;;;;;;;21.34;48.95;100797.97;4999323;28;19925;-89
2023/09/23 03:53:05;;;;;;;;;;;;;;;21.30;48.77;100802.47;4995764;28;20298;-89
2023/09/23 03:55:33;;;;;;;;;;;;;;;21.25;49.16;100801.81;4976858;28;19925;-90
2023/09/23 03:58:03;;;;;;;;;;;;;;;21.21;49.14;100788.00;4995649;28;20449;-89
2023/09/23 04:00:31;;;;;;;;;;;;;;;21.19;48.96;100789.44;4983486;28;19926;-90
2023/09/23 04:03:00;;;;;;;;;;;;;;;21.17;48.97;100788.94;4982310;28;19918;-89
2023/09/23 04:05:26;;;;;;;;;;;;;;;21.17;49.16;100789.75;4978841;28;19945;-89
2023/09/23 04:07:52;;;;;;;;;;;;;;;21.18;48.92;100791.34;4980306;28;19941;-89
2023/09/23 04:10:19;;;;;;;;;;;;;;;21.18;48.84;100807.69;4997809;28;20382;-90
2023/09/23 04:12:47;;;;;;;;;;;;;;;21.17;48.85;100802.56;4988085;28;19922;-88
2023/09/23 04:15:15;;;;;;;;;;;;;;;21.16;48.75;100809.94;4987369;28;19934;-89
2023/09/23 04:17:43;;;;;;;;;;;;;;;21.14;48.79;100814.91;4983882;28;19941;-90
2023/09/23 04:20:14;;;;;;;;;;;;;;;21.13;48.80;100813.28;4985358;28;19918;-90
2023/09/23 04:22:41;;;;;;;;;;;;;;;21.11;48.72;100810.09;4984164;28;19953;-90
2023/09/23 04:25:13;;;;;;;;;;;;;;;21.10;48.92;100816.66;4979323;28;19925;-89
2023/09/23 04:27:40;;;;;;;;;;;;;;;21.09;49.07;100817.78;4985810;28;19926;-89
2023/09/23 04:30:15;;;;;;;;;;;;;;;21.08;48.80;100819.69;4982722;28;19948;-89
2023/09/23 04:32:41;;;;;;;;;;;;;;;21.06;48.59;100821.94;4986227;28;20322;-89
2023/09/23 04:35:07;;;;;;;;;;;;;;;21.05;48.93;100825.78;4986220;28;20016;-89
2023/09/23 04:37:37;;;;;;;;;;;;;;;21.04;48.80;100828.84;4985172;28;20009;-89
2023/09/23 04:40:09;;;;;;;;;;;;;;;21.01;48.71;100826.75;4984775;28;19933;-89
2023/09/23 04:42:35;;;;;;;;;;;;;;;21.00;48.70;100827.84;4984065;28;19922;-90
2023/09/23 04:45:01;;;;;;;;;;;;;;;20.98;48.76;100827.34;5006537;28;20205;-89
2023/09/23 04:47:27;;;;;;;;;;;;;;;20.98;48.86;100832.78;4984331;28;19964;-88
2023/09/23 04:49:57;;;;;;;;;;;;;;;20.97;48.92;100837.44;4981613;28;19917;-89
2023/09/23 04:52:23;;;;;;;;;;;;;;;20.96;48.62;100837.75;4983155;28;20321;-89
2023/09/23 04:54:53;;;;;;;;;;;;;;;20.93;48.53;100841.13;4979404;28;19925;-89
2023/09/23 04:57:19;;;;;;;;;;;;;;;20.88;48.78;100844.78;4982353;28;19925;-89
2023/09/23 04:59:44;;;;;;;;;;;;;;;20.88;48.72;100846.72;5001163;28;19972;-89
2023/09/23 05:02:13;;;;;;;;;;;;;;;20.87;48.69;100843.19;4982476;28;19926;-88
2023/09/23 05:04:39;;;;;;;;;;;;;;;20.86;48.49;100854.41;4981947;28;19921;-89
2023/09/23 05:07:06;;;;;;;;;;;;;;;20.85;48.80;100852.81;4984506;28;19961;-89
2023/09/23 05:09:31;;;;;;;;;;;;;;;20.86;49.00;100865.28;4987614;28;20028;-89
2023/09/23 05:11:59;;;;;;;;;;;;;;;20.81;48.66;100863.50;5000764;28;20000;-88
2023/09/23 05:14:25;;;;;;;;;;;;;;;20.79;48.54;100873.91;4982703;28;20394;-89
2023/09/23 05:16:51;;;;;;;;;;;;;;;20.74;48.87;100880.28;4986562;28;20397;-89
2023/09/23 05:19:19;;;;;;;;;;;;;;;20.73;48.86;100870.53;4984749;28;19925;-89
2023/09/23 05:21:47;;;;;;;;;;;;;;;20.68;48.82;100873.38;4986204;28;19982;-89
2023/09/23 05:24:12;;;;;;;;;;;;;;;20.68;48.97;100876.09;4976911;28;19922;-89
2023/09/23 05:26:40;;;;;;;;;;;;;;;20.66;49.07;100870.16;4985564;28;19918;-90
2023/09/23 05:29:06;;;;;;;;;;;;;;;20.69;48.99;100876.91;4986407;28;19925;-89
2023/09/23 05:31:32;;;;;;;;;;;;;;;20.68;48.87;100881.56;4983966;28;20378;-89
2023/09/23 05:33:57;;;;;;;;;;;;;;;20.70;49.02;100889.41;4998120;28;19942;-89
2023/09/23 05:36:23;;;;;;;;;;;;;;;20.72;48.83;100893.41;4981509;28;19933;-89
2023/09/23 05:38:51;;;;;;;;;;;;;;;20.74;48.94;100896.63;4987156;28;19997;-89
2023/09/23 05:41:16;;;;;;;;;;;;;;;20.75;49.00;100906.41;4985424;28;20156;-89
2023/09/23 05:43:42;;;;;;;;;;;;;;;20.78;49.11;100913.13;4985451;28;19921;-89
2023/09/23 05:46:11;;;;;;;;;;;;;;;20.79;49.07;100925.63;4983483;28;21315;-89
2023/09/23 05:48:36;;;;;;;;;;;;;;;20.83;48.95;100923.13;4983924;28;19933;-89
2023/09/23 05:51:02;;;;;;;;;;;;;;;20.88;48.99;100922.97;4983994;28;20302;-90
2023/09/23 05:53:28;;;;;;;;;;;;;;;20.92;48.99;100929.41;4984398;28;19918;-89
2023/09/23 05:55:56;;;;;;;;;;;;;;;20.95;48.86;100936.94;4981236;28;19945;-90
2023/09/23 05:58:21;;;;;;;;;;;;;;;20.99;48.78;100943.34;4984826;28;20267;-89
2023/09/23 06:00:47;;;;;;;;;;;;;;;21.06;48.87;100949.19;4984102;28;19922;-88
2023/09/23 06:03:16;;;;;;;;;;;;;;;21.11;48.74;100947.13;4983628;28;19933;-88
2023/09/23 06:05:43;;;;;;;;;;;;;;;21.18;48.87;100951.28;4984796;28;19917;-90
2023/09/23 06:08:09;;;;;;;;;;;;;;;21.26;48.95;100953.31;4983112;28;19918;-89
2023/09/23 06:10:35;;;;;;;;;;;;;;;21.33;48.77;100945.47;4984733;28;19921;-90
2023/09/23 06:13:02;;;;;;;;;;;;;;;21.40;48.71;100943.91;4981333;28;19945;-89
2023/09/23 06:15:28;;;;;;;;;;;;;;;21.45;48.71;100947.59;4981743;28;20325;-89
2023/09/23 06:17:54;;;;;;;;;;;;;;;21.51;48.36;100947.13;4983723;28;19933;-90
2023/09/23 06:20:20;;;;;;;;;;;;;;;21.52;48.51;100948.72;4983948;28;19926;-89
2023/09/23 06:22:48;;;;;;;;;;;;;;;21.56;48.50;100943.47;4982614;28;19929;-89
2023/09/23 06:25:14;;;;;;;;;;;;;;;21.63;48.36;100949.25;4992787;28;19922;-90
2023/09/23 06:27:42;;;;;;;;;;;;;;;21.67;48.40;100955.66;4984802;28;19917;-89
2023/09/23 06:30:08;;;;;;;;;;;;;;;21.70;48.29;100961.28;4985505;28;19926;-90
2023/09/23 06:32:33;;;;;;;;;;;;;;;21.73;48.19;100957.16;4995513;28;19934;-89
2023/09/23 06:34:59;;;;;;;;;;;;;;;21.70;47.95;100958.56;5002006;28;19988;-89
2023/09/23 06:37:25;;;;;;;;;;;;;;;21.68;48.10;100951.81;4982853;28;20426;-90
2023/09/23 06:39:51;;;;;;;;;;;;;;;21.69;48.10;100956.94;4995442;28;19922;-90
2023/09/23 06:42:16;;;;;;;;;;;;;;;21.76;48.23;100970.13;5000914;28;19928;-90
2023/09/23 06:44:42;;;;;;;;;;;;;;;21.85;48.02;100967.41;4984698;28;20016;-90
2023/09/23 06:47:10;;;;;;;;;;;;;;;21.92;47.86;100974.03;4985516;28;19917;-90
2023/09/23 06:49:40;;;;;;;;;;;;;;;21.96;47.73;100977.72;4982535;28;19917;-89
2023/09/23 06:52:08;;;;;;;;;;;;;;;21.93;47.70;100975.63;4985418;28;20082;-89
2023/09/23 06:54:38;;;;;;;;;;;;;;;21.95;47.84;100978.84;4980459;28;20461;-89
2023/09/23 06:57:04;;;;;;;;;;;;;;;22.05;47.77;100993.31;4981623;28;20007;-89
2023/09/23 06:59:29;;;;;;;;;;;;;;;22.03;47.77;100991.66;5000109;28;20414;-89
2023/09/23 07:01:55;;;;;;;;;;;;;;;22.09;47.94;100988.84;4983098;28;19918;-89
2023/09/23 07:04:22;;;;;;;;;;;;;;;22.20;47.60;100995.56;4981880;28;20100;-89
2023/09/23 07:06:48;;;;;;;;;;;;;;;22.25;47.45;100998.13;4984443;28;20129;-88
2023/09/23 07:09:16;;;;;;;;;;;;;;;22.30;47.27;101001.53;4983964;28;19987;-89
2023/09/23 07:11:41;;;;;;;;;;;;;;;22.27;47.27;101004.09;4982015;28;19921;-88
2023/09/23 07:14:08;;;;;;;;;;;;;;;22.23;47.42;101009.38;4998313;28;20081;-89
2023/09/23 07:16:35;;;;;;;;;;;;;;;22.23;47.41;101008.56;4984128;28;19929;-89
2023/09/23 07:19:01;;;;;;;;;;;;;;;22.27;47.06;101017.75;4981909;28;19949;-89
2023/09/23 07:21:29;;;;;;;;;;;;;;;22.27;47.24;101021.28;4996056;28;19917;-87
2023/09/23 07:23:57;;;;;;;;;;;;;;;22.30;47.08;101019.84;4980843;28;19921;-89
2023/09/23 07:26:24;;;;;;;;;;;;;;;22.37;46.78;101031.06;4978811;28;20418;-92
2023/09/23 07:28:50;;;;;;;;;;;;;;;22.39;46.78;101034.28;4989960;28;20397;-90
2023/09/23 07:31:17;;;;;;;;;;;;;;;22.42;46.84;101036.38;4984309;28;19968;-89
2023/09/23 07:33:43;;;;;;;;;;;;;;;22.51;46.61;101039.13;4983004;28;19980;-89
2023/09/23 07:36:11;;;;;;;;;;;;;;;22.58;46.73;101044.88;4979833;28;19930;-89
2023/09/23 07:38:38;;;;;;;;;;;;;;;22.71;46.15;101048.59;4982332;28;19936;-88
2023/09/23 07:41:03;;;;;;;;;;;;;;;22.66;46.13;101051.50;4979510;28;20302;-89
2023/09/23 07:43:30;;;;;;;;;;;;;;;22.60;46.29;101048.09;4984290;28;20406;-89
2023/09/23 07:46:01;;;;;;;;;;;;;;;22.66;46.26;101056.94;4982642;28;19929;-90
2023/09/23 07:48:27;;;;;;;;;;;;;;;22.70;46.16;101068.84;4980252;28;19924;-89
2023/09/23 07:50:54;;;;;;;;;;;;;;;22.73;46.22;101060.78;4981965;28;19921;-90
2023/09/23 07:53:21;;;;;;;;;;;;;;;22.79;45.87;101069.63;4978417;28;19921;-89
2023/09/23 07:55:47;;;;;;;;;;;;;;;22.85;46.09;101071.13;4978428;28;20032;-90
2023/09/23 07:58:14;;;;;;;;;;;;;;;22.94;45.83;101071.88;4980496;28;20017;-89
2023/09/23 08:00:48;;;;;;;;;;;;;;;23.05;45.72;101075.91;4981292;28;20003;-85
2023/09/23 08:03:14;;;;;;;;;;;;;;;23.16;45.59;101071.72;4983583;28;19973;-89
2023/09/23 08:05:40;;;;;;;;;;;;;;;23.25;45.39;101090.03;4986304;28;19933;-86
2023/09/23 08:08:06;;;;;;;;;;;;;;;23.27;45.06;101082.28;4969537;28;19918;-87
2023/09/23 08:10:31;;;;;;;;;;;;;;;23.28;44.99;101078.44;4975268;28;19928;-88
2023/09/23 08:12:56;;;;;;;;;;;;;;;23.31;44.91;101089.50;4975351;28;20390;-87
2023/09/23 08:15:22;;;;;;;;;;;;;;;23.33;44.84;101094.66;4980519;28;19976;-87
2023/09/23 08:17:47;;;;;;;;;;;;;;;23.43;44.73;101097.06;4980466;28;19930;-86
2023/09/23 08:20:20;;;;;;;;;;;;;;;23.45;44.54;101103.00;4977725;28;19929;-88
2023/09/23 08:22:46;;;;;;;;;;;;;;;23.39;44.46;101116.03;4976365;28;19925;-90
2023/09/23 08:25:13;;;;;;;;;;;;;;;23.31;44.58;101118.78;4978560;28;19925;-90
2023/09/23 08:27:40;;;;;;;;;;;;;;;23.33;44.84;101127.47;4971716;28;20012;-85
2023/09/23 08:30:06;;;;;;;;;;;;;;;23.35;44.69;101127.97;4975475;28;20162;-89
2023/09/23 08:32:33;;;;;;;;;;;;;;;23.48;44.75;101130.47;4972908;28;20417;-90
2023/09/23 08:34:58;;;;;;;;;;;;;;;23.71;44.49;101131.09;4977139;28;19929;-90
2023/09/23 08:37:24;;;;;;;;;;;;;;;23.99;44.03;101147.88;4979060;28;19937;-86
2023/09/23 08:39:52;;;;;;;;;;;;;;;24.06;43.65;101148.19;4977981;28;19929;-91
2023/09/23 08:42:17;;;;;;;;;;;;;;;24.01;43.38;101150.28;4973479;28;19922;-86
2023/09/23 08:44:43;;;;;;;;;;;;;;;23.92;43.40;101149.53;4975564;28;19925;-88
2023/09/23 08:47:10;;;;;;;;;;;;;;;24.03;43.47;101151.56;4974053;28;20021;-88
2023/09/23 08:49:37;;;;;;;;;;;;;;;24.14;43.09;101160.22;4976142;28;20092;-86
2023/09/23 08:52:04;;;;;;;;;;;;;;;24.03;42.96;101153.50;4977013;28;20303;-88
2023/09/23 08:54:31;;;;;;;;;;;;;;;23.96;42.75;101154.03;4951294;28;19930;-88
2023/09/23 08:56:57;;;;;;;;;;;;;;;24.04;42.81;101160.56;4978943;28;19930;-89
2023/09/23 08:59:26;;;;;;;;;;;;;;;24.21;42.51;101176.13;4985574;28;19929;-87
2023/09/23 09:01:52;;;;;;;;;;;;;;;24.24;42.35;101170.81;4979769;28;19922;-85
2023/09/23 09:04:17;;;;;;;;;;;;;;;24.38;41.95;101185.09;4983978;28;20374;-85
2023/09/23 09:06:49;;;;;;;;;;;;;;;24.38;41.93;101187.81;4982902;28;20437;-89
2023/09/23 09:09:16;;;;;;;;;;;;;;;24.28;41.89;101190.91;4981848;28;19972;-88
2023/09/23 09:11:46;;;;;;;;;;;;;;;24.22;42.13;101194.97;4999679;28;19929;-88
2023/09/23 09:14:11;;;;;;;;;;;;;;;24.14;42.20;101187.59;4982801;28;19983;-87
2023/09/23 09:16:39;;;;;;;;;;;;;;;24.23;42.21;101188.34;4981110;28;20412;-89
2023/09/23 09:19:05;;;;;;;;;;;;;;;24.39;41.86;101197.66;4979806;28;19922;-87
2023/09/23 09:21:31;;;;;;;;;;;;;;;24.47;41.43;101200.69;4980069;28;20401;-87
2023/09/23 09:23:57;;;;;;;;;;;;;;;24.63;41.22;101198.97;4979810;28;19924;-88
2023/09/23 09:26:24;;;;;;;;;;;;;;;24.70;40.43;101205.53;4993673;28;19969;-89
2023/09/23 09:28:49;;;;;;;;;;;;;;;24.87;40.71;101201.06;4980123;28;20007;-87
2023/09/23 09:31:15;;;;;;;;;;;;;;;24.93;40.19;101207.94;4976776;28;20008;-91
2023/09/23 09:33:43;;;;;;;;;;;;;;;25.08;40.15;101220.28;4984431;28;19924;-91
2023/09/23 09:36:10;;;;;;;;;;;;;;;25.18;40.06;101219.91;4981435;28;19926;-88
2023/09/23 09:38:37;;;;;;;;;;;;;;;25.05;40.03;101223.69;4993632;28;19941;-90
2023/09/23 09:41:04;;;;;;;;;;;;;;;24.92;39.75;101231.00;4981645;28;19948;-86
2023/09/23 09:43:34;;;;;;;;;;;;;;;24.77;40.04;101229.66;4983293;28;19925;-90
2023/09/23 09:46:08;;;;;;;;;;;;;;;24.61;39.96;101225.91;4985035;28;19956;-91
2023/09/23 09:48:35;;;;;;;;;;;;;;;24.58;40.15;101234.75;5002074;28;19929;-86
2023/09/23 09:51:01;;;;;;;;;;;;;;;24.74;40.52;101227.59;4983676;28;19921;-89
2023/09/23 09:53:28;;;;;;;;;;;;;;;24.93;39.67;101227.94;4980321;28;19921;-91
2023/09/23 09:55:56;;;;;;;;;;;;;;;25.05;39.94;101223.69;4983107;28;19930;-88
2023/09/23 09:58:37;;;;;;;;;;;;;;;25.23;39.65;101222.44;4984379;28;19918;-91
2023/09/23 10:01:03;;;;;;;;;;;;;;;25.36;39.48;101220.56;4982656;28;19969;-90
2023/09/23 10:03:30;;;;;;;;;;;;;;;25.35;39.12;101213.47;4989237;28;19961;-90
2023/09/23 10:06:00;;;;;;;;;;;;;;;25.39;39.36;101214.38;4987999;28;19918;-89
2023/09/23 10:08:36;;;;;;;;;;;;;;;25.26;38.79;101225.28;4985594;28;19917;-87
2023/09/23 10:11:04;;;;;;;;;;;;;;;25.25;39.56;101220.94;4984755;28;19928;-93
2023/09/23 10:13:33;;;;;;;;;;;;;;;25.40;39.18;101230.50;4988076;28;19974;-92
2023/09/23 10:16:04;;;;;;;;;;;;;;;25.45;39.14;101219.31;4982433;28;19933;-91
2023/09/23 10:18:34;;;;;;;;;;;;;;;25.40;39.11;101233.25;4990261;28;19922;-89
2023/09/23 10:21:02;;;;;;;;;;;;;;;25.37;38.99;101244.91;4984901;28;19964;-88
2023/09/23 10:23:27;;;;;;;;;;;;;;;25.46;39.04;101248.34;4989160;28;19925;-87
2023/09/23 10:25:52;;;;;;;;;;;;;;;25.52;38.45;101238.81;4985398;28;20537;-87
2023/09/23 10:28:24;;;;;;;;;;;;;;;25.71;38.40;101248.50;4987581;28;20735;-90
2023/09/23 10:30:58;;;;;;;;;;;;;;;25.86;38.09;101245.13;5007561;28;19937;-89
2023/09/23 10:33:27;;;;;;;;;;;;;;;25.87;37.66;101249.47;4987422;28;20005;-90
2023/09/23 10:35:58;;;;;;;;;;;;;;;25.75;37.99;101243.94;4985617;28;20406;-90
2023/09/23 10:38:34;;;;;;;;;;;;;;;25.77;37.90;101242.44;4987492;28;20150;-90
2023/09/23 10:41:10;;;;;;;;;;;;;;;25.87;37.88;101236.53;4982290;28;19927;-89
2023/09/23 10:43:36;;;;;;;;;;;;;;;26.04;37.11;101230.06;4983798;28;19953;-88
2023/09/23 10:46:02;;;;;;;;;;;;;;;26.07;36.79;101226.63;4980317;28;20632;-88
2023/09/23 10:48:27;;;;;;;;;;;;;;;26.10;36.92;101228.69;4997944;28;19925;-88
2023/09/23 10:50:53;;;;;;;;;;;;;;;26.32;36.95;101241.16;4987242;28;19932;-91
2023/09/23 10:53:21;;;;;;;;;;;;;;;26.39;36.01;101233.22;4986432;28;19921;-90
2023/09/23 10:55:49;;;;;;;;;;;;;;;26.48;36.17;101250.38;4982012;28;19932;-86
2023/09/23 10:58:15;;;;;;;;;;;;;;;26.46;36.14;101251.84;4979667;28;20623;-90
2023/09/23 11:00:42;;;;;;;;;;;;;;;26.52;34.88;101249.69;4983489;28;19921;-89
2023/09/23 11:03:09;;;;;;;;;;;;;;;26.42;35.28;101259.19;4983032;28;19928;-85
2023/09/23 11:05:37;;;;;;;;;;;;;;;26.37;35.54;101251.16;4985477;28;20401;-89
2023/09/23 11:08:04;;;;;;;;;;;;;;;26.35;35.80;101251.50;4984811;28;19932;-90
2023/09/23 11:10:29;;;;;;;;;;;;;;;26.28;35.24;101254.00;5000342;28;19922;-86
2023/09/23 11:12:56;;;;;;;;;;;;;;;26.33;35.78;101255.72;4986316;28;19921;-88
2023/09/23 11:15:22;;;;;;;;;;;;;;;26.47;35.64;101247.97;4984372;28;19922;-87
2023/09/23 11:17:47;;;;;;;;;;;;;;;26.62;35.43;101244.53;4982983;28;20457;-87
2023/09/23 11:20:13;;;;;;;;;;;;;;;26.81;35.29;101241.19;4981805;28;19926;-91
2023/09/23 11:22:43;;;;;;;;;;;;;;;27.01;34.73;101253.22;4987619;28;20084;-91
2023/09/23 11:25:12;;;;;;;;;;;;;;;27.13;35.11;101250.44;4993134;28;19922;-91
2023/09/23 11:27:38;;;;;;;;;;;;;;;27.18;34.70;101244.69;4988459;28;19925;-91
2023/09/23 11:30:04;;;;;;;;;;;;;;;27.05;34.83;101245.84;4998793;28;19926;-85
2023/09/23 11:32:31;;;;;;;;;;;;;;;26.95;35.09;101246.31;4984886;28;19925;-87
2023/09/23 11:34:56;;;;;;;;;;;;;;;27.04;34.89;101250.56;5001028;28;19926;-89
2023/09/23 11:37:22;;;;;;;;;;;;;;;27.08;34.90;101245.97;4984073;28;19930;-87
2023/09/23 11:39:49;;;;;;;;;;;;;;;27.18;34.53;101252.94;4979273;28;19918;-89
2023/09/23 11:42:14;;;;;;;;;;;;;;;27.15;34.68;101250.09;4984526;28;19932;-85
2023/09/23 11:44:39;;;;;;;;;;;;;;;27.08;34.59;101256.97;4982228;28;19925;-86
2023/09/23 11:47:05;;;;;;;;;;;;;;;27.00;34.75;101251.59;4979989;28;19921;-86
2023/09/23 11:49:30;;;;;;;;;;;;;;;26.90;34.89;101252.03;4979562;28;19921;-88
2023/09/23 11:51:56;;;;;;;;;;;;;;;26.84;34.96;101251.50;4995321;28;19983;-88
2023/09/23 11:54:22;;;;;;;;;;;;;;;26.73;34.96;101251.16;4982691;28;20037;-87
2023/09/23 11:56:47;;;;;;;;;;;;;;;26.69;34.95;101257.69;4977954;28;19934;-91
2023/09/23 11:59:14;;;;;;;;;;;;;;;26.69;34.97;101253.00;4996018;28;19932;-86
2023/09/23 12:01:41;;;;;;;;;;;;;;;26.63;34.60;101267.31;4980650;28;19921;-89
2023/09/23 12:04:08;;;;;;;;;;;;;;;26.58;35.03;101262.84;4986126;28;19922;-89
2023/09/23 12:06:35;;;;;;;;;;;;;;;26.50;34.89;101258.25;4982061;28;19930;-91
2023/09/23 12:09:02;;;;;;;;;;;;;;;26.48;34.93;101255.06;4988200;28;20405;-89
2023/09/23 12:11:30;;;;;;;;;;;;;;;26.52;34.91;101255.16;4984249;28;19918;-91
2023/09/23 12:13:55;;;;;;;;;;;;;;;26.60;34.85;101257.81;5001624;28;19921;-90
2023/09/23 12:16:24;;;;;;;;;;;;;;;26.63;34.86;101262.63;4982018;28;19926;-92
2023/09/23 12:18:53;;;;;;;;;;;;;;;26.71;34.71;101249.88;5004273;28;19930;-90
2023/09/23 12:21:18;;;;;;;;;;;;;;;26.83;34.89;101260.88;4981420;28;19961;-86
2023/09/23 12:23:44;;;;;;;;;;;;;;;26.85;34.68;101264.09;4992866;28;19934;-88
2023/09/23 12:26:12;;;;;;;;;;;;;;;26.74;34.52;101269.25;4974383;28;20004;-90
2023/09/23 12:28:37;;;;;;;;;;;;;;;26.67;34.83;101276.47;4984022;28;19918;-89
2023/09/23 12:31:04;;;;;;;;;;;;;;;26.65;34.49;101279.56;4981466;28;20416;-91
2023/09/23 12:33:30;;;;;;;;;;;;;;;26.59;34.74;101283.69;4986528;28;19976;-89
2023/09/23 12:35:56;;;;;;;;;;;;;;;26.54;34.80;101292.16;4985126;28;20004;-90
2023/09/23 12:38:23;;;;;;;;;;;;;;;26.70;34.75;101295.00;4989255;28;20389;-91
2023/09/23 12:40:49;;;;;;;;;;;;;;;26.96;34.36;101305.66;4985703;28;20008;-92